KGED/GED METAR and TAF weather

Enter ICAO airport designator
Station Type Date Time Source
KGED METAR 2022/11/30 16:05 UTC NOAA

KGED 301605Z AUTO 19013KT 4SM -RA BR OVC009 16/14 A2993 RMK AO2 CIG 006V013 P0002 T01560139 $


Station Type Date Time Source
KGED Decoded METAR 2022/11/30 16:05 UTC NOAA

GEORGETOWN SUSSEX CO AIRPORT , DE, United States (KGED) 38-41N 075-22W 19M
Nov 30, 2022 - 11:05 AM EST / 2022.11.30 1605 UTC
Wind: from the S (190 degrees) at 15 MPH (13 KT):0
Visibility: 4 mile(s):0
Sky conditions: overcast
Weather: light rain; mist
Precipitation last hour: 0.02 inches
Temperature: 60.1 F (15.6 C)
Dew Point: 57.0 F (13.9 C)
Relative Humidity: 89%
Pressure (altimeter): 29.93 in. Hg (1013 hPa)
ob: KGED 301605Z AUTO 19013KT 4SM -RA BR OVC009 16/14 A2993 RMK AO2 CIG 006V013 P0002 T01560139
cycle: 16

Station Type Date Time Source
KGED TAF UTC NOAA

Error!

Example: see airport list